createdAt,value
2022-08-30T00:02:27.419Z,101130.00
2022-08-30T00:04:55.354Z,101133.50
2022-08-30T00:07:23.560Z,101131.75
2022-08-30T00:09:51.362Z,101130.91
2022-08-30T00:12:23.787Z,101128.25
2022-08-30T00:14:51.589Z,101126.44
2022-08-30T00:17:19.477Z,101129.06
2022-08-30T00:19:47.499Z,101129.94
2022-08-30T00:22:15.378Z,101135.16
2022-08-30T00:24:43.421Z,101129.91
2022-08-30T00:27:11.827Z,101131.66
2022-08-30T00:29:41.191Z,101129.00
2022-08-30T00:32:09.037Z,101122.84
2022-08-30T00:34:36.856Z,101118.41
2022-08-30T00:37:04.703Z,101122.81
2022-08-30T00:39:32.533Z,101127.09
2022-08-30T00:42:00.773Z,101119.25
2022-08-30T00:44:28.692Z,101126.22
2022-08-30T00:46:57.844Z,101120.97
2022-08-30T00:49:26.304Z,101120.94
2022-08-30T00:51:55.371Z,101125.31
2022-08-30T00:54:25.443Z,101120.91
2022-08-30T00:56:54.454Z,101124.38
2022-08-30T00:59:24.501Z,101118.19
2022-08-30T01:01:53.868Z,101120.81
2022-08-30T01:04:26.309Z,101120.81
2022-08-30T01:06:54.359Z,101118.16
2022-08-30T01:09:23.432Z,101112.00
2022-08-30T01:11:51.277Z,101116.38
2022-08-30T01:14:21.984Z,101124.25
2022-08-30T01:16:57.728Z,101120.69
2022-08-30T01:19:38.435Z,101126.72
2022-08-30T01:22:20.912Z,101124.97
2022-08-30T01:24:53.482Z,101126.72
2022-08-30T01:27:24.315Z,101128.53
2022-08-30T01:29:53.322Z,101131.16
2022-08-30T01:32:29.062Z,101132.81
2022-08-30T01:34:58.360Z,101129.31
2022-08-30T01:37:31.531Z,101133.66
2022-08-30T01:40:01.557Z,101131.03
2022-08-30T01:42:29.468Z,101130.13
2022-08-30T01:44:57.322Z,101138.78
2022-08-30T01:47:25.149Z,101140.56
2022-08-30T01:49:53.664Z,101132.72
2022-08-30T01:52:21.695Z,101131.78
2022-08-30T01:54:50.170Z,101137.88
2022-08-30T01:57:23.527Z,101144.84
2022-08-30T01:59:51.412Z,101144.81
2022-08-30T02:02:23.266Z,101145.69
2022-08-30T02:04:51.799Z,101148.28
2022-08-30T02:07:20.429Z,101143.88
2022-08-30T02:09:48.476Z,101142.13
2022-08-30T02:12:16.356Z,101146.41
2022-08-30T02:14:45.573Z,101137.72
2022-08-30T02:17:15.178Z,101142.91
2022-08-30T02:19:43.608Z,101145.50
2022-08-30T02:22:12.390Z,101139.38
2022-08-30T02:24:40.527Z,101146.31
2022-08-30T02:27:08.366Z,101142.84
2022-08-30T02:29:36.243Z,101148.94
2022-08-30T02:32:06.042Z,101144.53
2022-08-30T02:34:34.110Z,101141.06
2022-08-30T02:37:02.071Z,101143.63
2022-08-30T02:39:29.967Z,101149.78
2022-08-30T02:41:57.820Z,101151.50
2022-08-30T02:44:25.600Z,101148.00
2022-08-30T02:46:53.585Z,101144.47
2022-08-30T02:49:33.107Z,101142.75
2022-08-30T02:52:04.012Z,101142.75
2022-08-30T02:54:33.355Z,101143.53
2022-08-30T02:57:04.723Z,101140.94
2022-08-30T02:59:33.521Z,101146.16
2022-08-30T03:02:01.724Z,101141.72
2022-08-30T03:04:30.948Z,101145.19
2022-08-30T03:06:59.086Z,101137.31
2022-08-30T03:09:26.913Z,101138.19
2022-08-30T03:11:54.763Z,101132.88
2022-08-30T03:14:22.851Z,101138.16
2022-08-30T03:16:51.421Z,101133.81
2022-08-30T03:19:19.244Z,101132.84
2022-08-30T03:21:49.117Z,101123.25
2022-08-30T03:24:17.264Z,101124.94
2022-08-30T03:26:46.551Z,101124.94
2022-08-30T03:29:14.900Z,101124.06
2022-08-30T03:31:53.388Z,101128.38
2022-08-30T03:34:23.791Z,101130.09
2022-08-30T03:36:55.678Z,101135.28
2022-08-30T03:39:24.917Z,101128.31
2022-08-30T03:41:53.774Z,101127.44
2022-08-30T03:44:21.781Z,101128.31
2022-08-30T03:46:50.175Z,101122.97
2022-08-30T03:49:19.379Z,101121.22
2022-08-30T03:51:48.377Z,101122.97
2022-08-30T03:54:18.339Z,101128.13
2022-08-30T03:56:46.193Z,101129.84
2022-08-30T03:59:14.316Z,101130.63
2022-08-30T04:01:42.291Z,101131.56
2022-08-30T04:04:10.141Z,101138.53
2022-08-30T04:06:38.333Z,101135.00
2022-08-30T04:09:06.836Z,101138.47
2022-08-30T04:11:36.325Z,101129.69
2022-08-30T04:14:04.288Z,101148.91
2022-08-30T04:16:32.184Z,101148.03
2022-08-30T04:19:00.088Z,101148.91
2022-08-30T04:21:28.228Z,101139.31
2022-08-30T04:23:56.149Z,101139.31
2022-08-30T04:26:27.646Z,101140.16
2022-08-30T04:28:59.269Z,101137.53
2022-08-30T04:31:27.303Z,101140.06
2022-08-30T04:33:55.290Z,101140.03
2022-08-30T04:36:23.665Z,101146.91
2022-08-30T04:38:51.509Z,101141.66
2022-08-30T04:41:20.816Z,101153.00
2022-08-30T04:43:51.933Z,101152.16
2022-08-30T04:46:21.419Z,101154.72
2022-08-30T04:48:49.821Z,101151.16
2022-08-30T04:51:18.557Z,101152.06
2022-08-30T04:53:46.921Z,101162.50
2022-08-30T04:56:18.113Z,101164.28
2022-08-30T04:58:47.538Z,101163.47
2022-08-30T05:01:18.801Z,101159.06
2022-08-30T05:03:54.956Z,101168.75
2022-08-30T05:06:28.648Z,101158.28
2022-08-30T05:08:59.359Z,101173.19
2022-08-30T05:11:28.614Z,101168.06
2022-08-30T05:13:56.595Z,101168.16
2022-08-30T05:16:24.710Z,101169.06
2022-08-30T05:18:54.681Z,101168.34
2022-08-30T05:21:26.623Z,101161.47
2022-08-30T05:23:57.402Z,101167.66
2022-08-30T05:26:29.685Z,101159.91
2022-08-30T05:28:58.336Z,101167.09
2022-08-30T05:31:29.847Z,101171.63
2022-08-30T05:33:59.971Z,101170.91
2022-08-30T05:36:31.108Z,101178.00
2022-08-30T05:39:00.376Z,101171.13
2022-08-30T05:41:28.759Z,101179.22
2022-08-30T05:43:59.523Z,101173.22
2022-08-30T05:49:07.820Z,101171.81
2022-08-30T05:51:43.108Z,101178.00
2022-08-30T05:54:13.127Z,101181.59
2022-08-30T05:56:45.170Z,101184.41
2022-08-30T05:59:15.118Z,101181.78
2022-08-30T06:01:46.055Z,101190.50
2022-08-30T06:04:15.938Z,101188.84
2022-08-30T06:06:44.596Z,101179.31
2022-08-30T06:09:14.742Z,101176.72
2022-08-30T06:11:43.217Z,101185.53
2022-08-30T06:14:11.680Z,101178.59
2022-08-30T06:16:40.864Z,101183.00
2022-08-30T06:19:10.876Z,101183.00
2022-08-30T06:21:41.848Z,101170.75
2022-08-30T06:24:11.476Z,101180.41
2022-08-30T06:26:43.031Z,101170.75
2022-08-30T06:29:14.348Z,101171.63
2022-08-30T06:31:42.723Z,101177.75
2022-08-30T06:34:11.021Z,101176.00
2022-08-30T06:36:40.985Z,101181.28
2022-08-30T06:39:09.771Z,101189.16
2022-08-30T06:41:40.057Z,101188.25
2022-08-30T06:44:18.204Z,101199.66
2022-08-30T06:46:46.653Z,101195.28
2022-08-30T06:49:14.670Z,101191.69
2022-08-30T06:51:44.130Z,101198.72
2022-08-30T06:54:13.022Z,101196.03
2022-08-30T06:56:48.709Z,101201.25
2022-08-30T06:59:26.823Z,101198.56
2022-08-30T07:01:55.286Z,101201.06
2022-08-30T07:04:24.039Z,101202.72
2022-08-30T07:06:53.292Z,101198.97
2022-08-30T07:09:23.081Z,101197.00
2022-08-30T07:11:53.473Z,101189.19
2022-08-30T07:14:22.404Z,101202.22
2022-08-30T07:16:51.274Z,101206.50
2022-08-30T07:19:20.951Z,101210.81
2022-08-30T07:21:50.299Z,101202.88
2022-08-30T07:24:20.938Z,101194.56
2022-08-30T07:26:51.767Z,101197.78
2022-08-30T07:29:21.079Z,101201.88
2022-08-30T07:31:49.256Z,101196.63
2022-08-30T07:34:19.278Z,101186.84
2022-08-30T07:36:48.419Z,101188.72
2022-08-30T07:39:16.352Z,101185.81
2022-08-30T07:41:45.974Z,101191.09
2022-08-30T07:44:14.125Z,101184.88
2022-08-30T07:46:42.871Z,101197.13
2022-08-30T07:49:12.934Z,101192.72
2022-08-30T07:51:41.696Z,101192.06
2022-08-30T07:54:09.594Z,101192.78
2022-08-30T07:56:37.611Z,101197.72
2022-08-30T07:59:06.953Z,101193.25
2022-08-30T08:01:34.828Z,101199.00
2022-08-30T08:04:03.559Z,101205.63
2022-08-30T08:06:34.888Z,101211.84
2022-08-30T08:09:04.339Z,101206.66
2022-08-30T08:11:34.712Z,101205.34
2022-08-30T08:14:04.378Z,101214.34
2022-08-30T08:16:36.375Z,101218.13
2022-08-30T08:19:08.940Z,101212.06
2022-08-30T08:21:37.947Z,101207.56
2022-08-30T08:24:06.745Z,101212.00
2022-08-30T08:26:37.011Z,101207.06
2022-08-30T08:29:07.928Z,101206.88
2022-08-30T08:31:38.019Z,101199.22
2022-08-30T08:34:06.595Z,101198.88
2022-08-30T08:36:35.781Z,101198.38
2022-08-30T08:39:06.313Z,101198.09
2022-08-30T08:41:53.483Z,101193.38
2022-08-30T08:44:41.850Z,101200.00
2022-08-30T08:47:17.892Z,101187.38
2022-08-30T08:49:51.596Z,101192.78
2022-08-30T08:52:47.321Z,101198.63
2022-08-30T08:55:20.313Z,101194.88
2022-08-30T08:57:48.424Z,101196.94
2022-08-30T09:00:16.638Z,101198.88
2022-08-30T09:02:55.901Z,101195.00
2022-08-30T09:05:29.140Z,101199.22
2022-08-30T09:08:04.569Z,101199.56
2022-08-30T09:10:49.827Z,101196.00
2022-08-30T09:13:19.714Z,101202.03
2022-08-30T09:15:54.796Z,101200.88
2022-08-30T09:18:45.414Z,101194.22
2022-08-30T09:21:20.335Z,101191.53
2022-08-30T09:23:55.136Z,101185.72
2022-08-30T09:26:30.827Z,101184.69
2022-08-30T09:29:00.826Z,101185.75
2022-08-30T09:31:32.209Z,101189.44
2022-08-30T09:34:06.115Z,101188.88
2022-08-30T09:36:41.713Z,101191.91
2022-08-30T09:39:18.774Z,101189.50
2022-08-30T09:41:50.047Z,101188.78
2022-08-30T09:44:22.401Z,101187.97
2022-08-30T09:46:54.323Z,101185.19
2022-08-30T09:49:37.826Z,101180.75
2022-08-30T09:52:18.323Z,101179.53
2022-08-30T09:55:08.011Z,101177.56
2022-08-30T09:57:48.670Z,101175.44
2022-08-30T10:00:21.656Z,101175.81
2022-08-30T10:03:13.321Z,101174.63
2022-08-30T10:05:57.771Z,101174.97
2022-08-30T10:08:45.192Z,101167.56
2022-08-30T10:11:26.566Z,101168.88
2022-08-30T10:14:15.237Z,101163.31
2022-08-30T10:16:56.303Z,101167.63
2022-08-30T10:19:40.383Z,101159.72
2022-08-30T10:22:19.059Z,101160.34
2022-08-30T10:24:51.844Z,101166.25
2022-08-30T10:27:26.883Z,101156.94
2022-08-30T10:30:02.544Z,101159.38
2022-08-30T10:32:41.668Z,101162.47
2022-08-30T10:35:19.618Z,101155.31
2022-08-30T10:37:58.452Z,101163.47
2022-08-30T10:40:51.686Z,101147.81
2022-08-30T10:43:31.346Z,101148.97
2022-08-30T10:46:05.641Z,101142.75
2022-08-30T10:48:41.099Z,101144.13
2022-08-30T10:51:24.364Z,101144.38
2022-08-30T10:54:02.039Z,101152.47
2022-08-30T10:56:31.520Z,101153.00
2022-08-30T10:59:00.524Z,101143.47
2022-08-30T11:02:03.068Z,101155.41
2022-08-30T11:05:07.112Z,101149.63
2022-08-30T11:07:47.101Z,101141.59
2022-08-30T11:10:49.462Z,101135.53
2022-08-30T11:13:25.330Z,101139.81
2022-08-30T11:16:01.524Z,101144.47
2022-08-30T11:18:40.479Z,101141.53
2022-08-30T11:21:25.858Z,101135.69
2022-08-30T11:24:11.098Z,101140.50
2022-08-30T11:27:02.172Z,101142.63
2022-08-30T11:29:41.513Z,101139.31
2022-08-30T11:32:57.229Z,101141.69
2022-08-30T11:35:49.866Z,101150.97
2022-08-30T11:39:01.813Z,101141.50
2022-08-30T11:41:43.127Z,101138.53
2022-08-30T11:44:31.227Z,101131.38
2022-08-30T11:47:01.029Z,101136.00
2022-08-30T11:50:02.717Z,101129.38
2022-08-30T11:52:59.686Z,101122.56
2022-08-30T11:55:53.995Z,101119.47
2022-08-30T11:58:44.100Z,101128.03
2022-08-30T12:01:49.732Z,101116.88
2022-08-30T12:04:37.355Z,101122.91
2022-08-30T12:07:08.746Z,101118.50
2022-08-30T12:10:06.608Z,101108.13
2022-08-30T12:12:51.011Z,101115.50
2022-08-30T12:15:56.906Z,101105.69
2022-08-30T12:18:32.860Z,101106.63
2022-08-30T12:21:12.251Z,101110.50
2022-08-30T12:23:51.142Z,101098.44
2022-08-30T12:26:31.513Z,101104.50
2022-08-30T12:29:16.153Z,101099.13
2022-08-30T12:31:48.556Z,101091.31
2022-08-30T12:34:23.694Z,101101.03
2022-08-30T12:36:59.225Z,101094.13
2022-08-30T12:39:31.511Z,101093.72
2022-08-30T12:42:17.761Z,101098.03
2022-08-30T12:44:50.456Z,101095.91
2022-08-30T12:47:25.649Z,101081.53
2022-08-30T12:49:55.842Z,101079.53
2022-08-30T12:52:34.758Z,101073.41
2022-08-30T12:55:17.671Z,101083.38
2022-08-30T12:58:00.632Z,101078.06
2022-08-30T13:00:34.060Z,101084.09
2022-08-30T13:03:16.367Z,101078.31
2022-08-30T13:05:54.773Z,101081.28
2022-08-30T13:08:29.286Z,101077.63
2022-08-30T13:11:07.443Z,101075.28
2022-08-30T13:13:44.392Z,101073.34
2022-08-30T13:16:29.616Z,101072.78
2022-08-30T13:19:31.402Z,101069.06
2022-08-30T13:22:00.714Z,101074.44
2022-08-30T13:24:30.383Z,101066.47
2022-08-30T13:27:06.564Z,101063.44
2022-08-30T13:29:36.386Z,101064.44
2022-08-30T13:32:06.353Z,101061.50
2022-08-30T13:34:35.797Z,101057.13
2022-08-30T13:37:06.034Z,101056.84
2022-08-30T13:39:34.300Z,101051.69
2022-08-30T13:44:53.903Z,101054.13
2022-08-30T13:47:32.559Z,101056.75
2022-08-30T13:50:00.738Z,101045.53
2022-08-30T13:52:29.002Z,101053.00
2022-08-30T13:54:58.645Z,101048.53
2022-08-30T14:00:21.753Z,101047.16
2022-08-30T14:02:55.662Z,101051.47
2022-08-30T14:11:05.850Z,101039.91
2022-08-30T14:13:34.028Z,101037.22
2022-08-30T14:18:56.432Z,101046.72
2022-08-30T14:21:25.190Z,101039.41
2022-08-30T14:23:53.401Z,101041.09
2022-08-30T14:26:24.845Z,101038.25
2022-08-30T14:28:54.488Z,101035.75
2022-08-30T14:31:25.742Z,101037.53
2022-08-30T14:33:53.788Z,101038.19
2022-08-30T14:36:22.960Z,101045.69
2022-08-30T14:38:52.439Z,101043.13
2022-08-30T14:41:20.405Z,101046.47
2022-08-30T14:43:49.968Z,101038.38
2022-08-30T14:46:18.104Z,101038.78
2022-08-30T14:48:46.835Z,101032.63
2022-08-30T14:51:18.018Z,101031.06
2022-08-30T14:53:51.257Z,101032.69
2022-08-30T14:56:21.157Z,101026.75
2022-08-30T14:58:50.756Z,101027.09
2022-08-30T15:01:20.389Z,101028.75
2022-08-30T15:03:48.433Z,101026.81
2022-08-30T15:06:16.440Z,101016.91
2022-08-30T15:08:47.906Z,101023.69
2022-08-30T15:11:21.026Z,101022.03
2022-08-30T15:13:49.182Z,101018.56
2022-08-30T15:16:25.044Z,101019.47
2022-08-30T15:18:54.688Z,101016.91
2022-08-30T15:21:24.845Z,101011.69
2022-08-30T15:23:54.621Z,101006.47
2022-08-30T15:26:24.826Z,101009.78
2022-08-30T15:28:53.771Z,101004.25
2022-08-30T15:31:25.032Z,101005.28
2022-08-30T15:33:52.874Z,101004.88
2022-08-30T15:36:20.931Z,101002.13
2022-08-30T15:38:48.779Z,101004.44
2022-08-30T15:41:16.577Z,101004.84
2022-08-30T15:43:45.795Z,101009.31
2022-08-30T15:46:22.320Z,100995.28
2022-08-30T15:48:55.150Z,100995.47
2022-08-30T15:51:25.049Z,100997.22
2022-08-30T15:53:53.244Z,100986.66
2022-08-30T15:56:21.672Z,100991.59
2022-08-30T15:58:53.084Z,100992.28
2022-08-30T16:01:30.374Z,100998.19
2022-08-30T16:03:59.280Z,101004.06
2022-08-30T16:06:32.304Z,100996.34
2022-08-30T16:09:01.007Z,100993.44
2022-08-30T16:11:29.323Z,100989.75
2022-08-30T16:13:59.094Z,100990.00
2022-08-30T16:16:27.075Z,100979.16
2022-08-30T16:18:55.330Z,100981.69
2022-08-30T16:21:26.541Z,100982.00
2022-08-30T16:23:56.421Z,100984.03
2022-08-30T16:26:25.253Z,100976.47
2022-08-30T16:28:54.431Z,100976.63
2022-08-30T16:31:26.766Z,100970.00
2022-08-30T16:33:55.370Z,100974.91
2022-08-30T16:36:32.048Z,100964.09
2022-08-30T16:39:00.304Z,100967.94
2022-08-30T16:41:28.713Z,100958.91
2022-08-30T16:43:56.679Z,100967.66
2022-08-30T16:46:28.483Z,100965.66
2022-08-30T16:48:59.302Z,100967.25
2022-08-30T16:51:31.621Z,100962.09
2022-08-30T16:54:04.412Z,100956.97
2022-08-30T16:56:34.187Z,100958.88
2022-08-30T16:59:03.359Z,100947.63
2022-08-30T17:01:37.910Z,100950.38
2022-08-30T17:04:08.483Z,100961.31
2022-08-30T17:06:37.334Z,100965.22
2022-08-30T17:09:06.913Z,100967.16
2022-08-30T17:11:36.462Z,100973.03
2022-08-30T17:14:05.284Z,100972.31
2022-08-30T17:16:37.095Z,100973.31
2022-08-30T17:19:07.452Z,100971.03
2022-08-30T17:21:36.620Z,100969.63
2022-08-30T17:24:06.979Z,100975.25
2022-08-30T17:26:37.731Z,100976.47
2022-08-30T17:29:07.747Z,100977.47
2022-08-30T17:31:37.795Z,100984.88
2022-08-30T17:34:05.839Z,100986.06
2022-08-30T17:36:36.917Z,100982.00
2022-08-30T17:39:10.935Z,100992.88
2022-08-30T17:41:45.406Z,100993.06
2022-08-30T17:44:19.846Z,100997.88
2022-08-30T17:46:49.406Z,100998.88
2022-08-30T17:49:17.746Z,101004.50
2022-08-30T17:51:47.886Z,100998.38
2022-08-30T17:54:20.689Z,101003.06
2022-08-30T17:56:56.614Z,101001.47
2022-08-30T17:59:26.228Z,101012.16
2022-08-30T18:01:55.517Z,101007.19
2022-08-30T18:04:27.509Z,101005.63
2022-08-30T18:06:55.939Z,101011.81
2022-08-30T18:09:24.636Z,101005.78
2022-08-30T18:11:56.392Z,101010.31
2022-08-30T18:14:25.211Z,101009.59
2022-08-30T18:19:46.380Z,101021.41
2022-08-30T18:22:15.078Z,101024.31
2022-08-30T18:24:43.225Z,101019.13
2022-08-30T18:27:11.196Z,101026.41
2022-08-30T18:29:41.814Z,101032.69
2022-08-30T18:32:11.115Z,101037.34
2022-08-30T18:34:40.383Z,101038.38
2022-08-30T18:37:12.727Z,101043.84
2022-08-30T18:39:41.263Z,101045.69
2022-08-30T18:42:10.152Z,101047.56
2022-08-30T18:44:39.753Z,101048.59
2022-08-30T18:47:07.682Z,101049.59
2022-08-30T18:49:37.417Z,101040.94
2022-08-30T18:52:09.615Z,101041.00
2022-08-30T18:54:42.967Z,101055.16
2022-08-30T18:57:14.510Z,101050.03
2022-08-30T18:59:44.228Z,101050.16
2022-08-30T19:02:15.623Z,101052.88
2022-08-30T19:04:47.961Z,101051.25
2022-08-30T19:07:19.489Z,101053.03
2022-08-30T19:09:48.853Z,101051.41
2022-08-30T19:12:16.762Z,101060.31
2022-08-30T19:14:45.567Z,101065.66
2022-08-30T19:17:13.528Z,101063.06
2022-08-30T19:19:48.572Z,101067.50
2022-08-30T19:22:19.512Z,101066.66
2022-08-30T19:24:50.330Z,101065.00
2022-08-30T19:27:21.317Z,101063.25
2022-08-30T19:29:53.192Z,101059.78
2022-08-30T19:32:22.234Z,101070.44
2022-08-30T19:34:50.133Z,101068.69
2022-08-30T19:37:18.838Z,101073.13
2022-08-30T19:39:48.465Z,101074.00
2022-08-30T19:42:16.599Z,101074.16
2022-08-30T19:44:44.646Z,101080.28
2022-08-30T19:47:13.074Z,101072.38
2022-08-30T19:49:41.031Z,101076.78
2022-08-30T19:52:09.701Z,101073.28
2022-08-30T19:54:37.625Z,101075.91
2022-08-30T19:57:09.624Z,101071.56
2022-08-30T19:59:37.782Z,101076.84
2022-08-30T20:02:06.632Z,101073.38
2022-08-30T20:04:34.625Z,101076.97
2022-08-30T20:07:02.482Z,101077.88
2022-08-30T20:09:30.332Z,101065.66
2022-08-30T20:11:58.846Z,101064.78
2022-08-30T20:14:28.582Z,101068.34
2022-08-30T20:16:56.760Z,101061.38
2022-08-30T20:22:15.221Z,101068.47
2022-08-30T20:24:27.136Z,101020.41
2022-08-30T20:24:43.829Z,101071.16
2022-08-30T20:27:12.360Z,101072.09
2022-08-30T20:29:43.041Z,101077.41
2022-08-30T20:32:10.888Z,101077.41
2022-08-30T20:34:39.497Z,101079.22
2022-08-30T20:37:08.166Z,101073.94
2022-08-30T20:39:37.616Z,101076.63
2022-08-30T20:42:06.547Z,101081.91
2022-08-30T20:44:34.534Z,101085.41
2022-08-30T20:47:04.405Z,101082.84
2022-08-30T20:49:32.829Z,101084.63
2022-08-30T20:52:00.741Z,101083.75
2022-08-30T20:54:33.248Z,101081.16
2022-08-30T20:57:01.182Z,101094.34
2022-08-30T20:59:29.523Z,101092.59
2022-08-30T21:01:59.366Z,101090.84
2022-08-30T21:04:33.358Z,101091.72
2022-08-30T21:07:01.546Z,101088.22
2022-08-30T21:09:30.088Z,101092.66
2022-08-30T21:11:59.042Z,101094.44
2022-08-30T21:14:27.809Z,101093.56
2022-08-30T21:16:55.967Z,101095.31
2022-08-30T21:19:24.932Z,101098.84
2022-08-30T21:21:54.143Z,101110.25
2022-08-30T21:24:22.345Z,101117.25
2022-08-30T21:26:51.991Z,101117.28
2022-08-30T21:29:20.235Z,101125.16
2022-08-30T21:31:48.421Z,101123.41
2022-08-30T21:34:17.628Z,101111.13
2022-08-30T21:36:46.418Z,101115.53
2022-08-30T21:39:20.870Z,101114.66
2022-08-30T21:41:50.563Z,101114.66
2022-08-30T21:44:21.946Z,101118.16
2022-08-30T21:46:52.111Z,101110.28
2022-08-30T21:49:24.287Z,101106.78
2022-08-30T21:51:53.706Z,101111.16
2022-08-30T21:54:24.886Z,101110.28
2022-08-30T21:57:04.788Z,101114.66
2022-08-30T21:59:34.506Z,101118.19
2022-08-30T22:02:02.738Z,101121.69
2022-08-30T22:04:30.679Z,101119.94
2022-08-30T22:06:59.278Z,101125.19
2022-08-30T22:09:29.289Z,101138.34
2022-08-30T22:11:57.132Z,101133.94
2022-08-30T22:14:27.676Z,101131.31
2022-08-30T22:16:55.733Z,101134.81
2022-08-30T22:19:24.118Z,101132.22
2022-08-30T22:22:01.303Z,101137.47
2022-08-30T22:24:31.944Z,101141.84
2022-08-30T22:27:02.237Z,101146.22
2022-08-30T22:29:30.530Z,101151.47
2022-08-30T22:32:00.549Z,101149.72
2022-08-30T22:34:28.934Z,101150.59
2022-08-30T22:36:59.889Z,101158.47
2022-08-30T22:39:29.199Z,101155.84
2022-08-30T22:41:58.389Z,101159.34
2022-08-30T22:44:27.294Z,101163.72
2022-08-30T22:46:55.179Z,101154.97
2022-08-30T22:49:23.019Z,101162.84
2022-08-30T22:51:50.873Z,101164.59
2022-08-30T22:54:18.830Z,101169.00
2022-08-30T22:56:46.875Z,101172.50
2022-08-30T22:59:16.223Z,101174.25
2022-08-30T23:01:44.500Z,101169.00
2022-08-30T23:04:13.080Z,101170.75
2022-08-30T23:06:41.824Z,101176.00
2022-08-30T23:09:18.527Z,101170.75
2022-08-30T23:11:46.790Z,101177.78
2022-08-30T23:14:16.323Z,101181.25
2022-08-30T23:16:44.995Z,101185.66
2022-08-30T23:19:13.177Z,101178.63
2022-08-30T23:21:42.434Z,101189.16
2022-08-30T23:24:28.855Z,101181.25
2022-08-30T23:27:15.304Z,101180.38
2022-08-30T23:30:03.259Z,101183.00
2022-08-30T23:32:49.832Z,101179.47
2022-08-30T23:35:37.140Z,101180.34
2022-08-30T23:38:24.960Z,101175.03
2022-08-30T23:41:11.422Z,101176.78
2022-08-30T23:43:58.240Z,101173.28
2022-08-30T23:46:46.010Z,101173.28
2022-08-30T23:49:33.045Z,101174.13
2022-08-30T23:52:19.615Z,101168.88
2022-08-30T23:55:06.269Z,101174.13
2022-08-30T23:57:52.954Z,101172.34
